createdAt,value
2018-01-15T00:01:52.302Z,-1.66
2018-01-15T00:04:19.834Z,-1.73
2018-01-15T00:06:47.371Z,-1.77
2018-01-15T00:09:14.922Z,-1.72
2018-01-15T00:11:42.457Z,-1.68
2018-01-15T00:14:10.042Z,-1.69
2018-01-15T00:16:37.642Z,-1.78
2018-01-15T00:19:05.278Z,-1.81
2018-01-15T00:21:32.878Z,-1.83
2018-01-15T00:24:00.483Z,-1.82
2018-01-15T00:26:28.074Z,-1.77
2018-01-15T00:28:55.607Z,-1.82
2018-01-15T00:31:23.141Z,-1.91
2018-01-15T00:33:50.682Z,-1.91
2018-01-15T00:36:18.217Z,-1.90
2018-01-15T00:38:45.821Z,-1.92
2018-01-15T00:41:13.419Z,-1.99
2018-01-15T00:43:40.950Z,-2.07
2018-01-15T00:46:08.550Z,-2.19
2018-01-15T00:48:36.093Z,-2.18
2018-01-15T00:51:03.731Z,-2.04
2018-01-15T00:53:31.330Z,-2.06
2018-01-15T00:55:58.925Z,-2.01
2018-01-15T00:58:26.530Z,-2.06
2018-01-15T01:00:54.126Z,-2.06
2018-01-15T01:03:21.714Z,-2.14
2018-01-15T01:05:49.261Z,-2.24
2018-01-15T01:08:16.861Z,-2.27
2018-01-15T01:10:44.446Z,-2.18
2018-01-15T01:13:12.039Z,-2.40
2018-01-15T01:15:39.630Z,-2.39
2018-01-15T01:18:07.169Z,-2.33
2018-01-15T01:20:34.729Z,-2.25
2018-01-15T01:23:02.285Z,-2.26
2018-01-15T01:25:29.886Z,-2.25
2018-01-15T01:27:57.482Z,-2.27
2018-01-15T01:30:25.085Z,-2.30
2018-01-15T01:32:52.658Z,-2.29
2018-01-15T01:35:20.210Z,-2.33
2018-01-15T01:37:47.806Z,-2.41
2018-01-15T01:40:15.451Z,-2.35
2018-01-15T01:42:43.021Z,-2.38
2018-01-15T01:45:10.565Z,-2.39
2018-01-15T01:47:38.113Z,-2.36
2018-01-15T01:50:05.654Z,-2.47
2018-01-15T01:52:33.316Z,-2.43
2018-01-15T01:55:00.866Z,-2.41
2018-01-15T01:57:28.406Z,-2.46
2018-01-15T01:59:55.949Z,-2.52
2018-01-15T02:02:23.485Z,-2.52
2018-01-15T02:04:51.126Z,-2.60
2018-01-15T02:07:18.661Z,-2.54
2018-01-15T02:09:46.271Z,-2.53
2018-01-15T02:12:13.822Z,-2.50
2018-01-15T02:14:41.365Z,-2.53
2018-01-15T02:17:08.951Z,-2.55
2018-01-15T02:19:36.570Z,-2.60
2018-01-15T02:22:04.118Z,-2.60
2018-01-15T02:24:31.742Z,-2.63
2018-01-15T02:26:59.289Z,-2.65
2018-01-15T02:29:26.963Z,-2.63
2018-01-15T02:31:54.523Z,-2.69
2018-01-15T02:34:22.070Z,-2.66
2018-01-15T02:36:49.622Z,-2.72
2018-01-15T02:39:17.163Z,-2.69
2018-01-15T02:41:44.747Z,-2.63
2018-01-15T02:44:12.291Z,-2.63
2018-01-15T02:46:39.897Z,-2.57
2018-01-15T02:49:07.498Z,-2.62
2018-01-15T02:51:35.037Z,-2.60
2018-01-15T02:54:02.621Z,-2.48
2018-01-15T02:56:30.168Z,-2.47
2018-01-15T02:58:57.767Z,-2.48
2018-01-15T03:01:25.314Z,-2.49
2018-01-15T03:03:52.858Z,-2.44
2018-01-15T03:06:20.456Z,-2.54
2018-01-15T03:08:48.006Z,-2.56
2018-01-15T03:11:15.551Z,-2.51
2018-01-15T03:13:43.167Z,-2.53
2018-01-15T03:16:10.708Z,-2.49
2018-01-15T03:18:38.299Z,-2.41
2018-01-15T03:21:05.837Z,-2.41
2018-01-15T03:23:33.377Z,-2.36
2018-01-15T03:26:00.986Z,-2.29
2018-01-15T03:28:28.534Z,-2.31
2018-01-15T03:30:56.187Z,-2.26
2018-01-15T03:33:23.725Z,-2.26
2018-01-15T03:35:51.326Z,-2.33
2018-01-15T03:38:18.939Z,-2.30
2018-01-15T03:40:46.533Z,-2.29
2018-01-15T03:43:14.182Z,-2.36
2018-01-15T03:45:41.721Z,-2.29
2018-01-15T03:48:09.318Z,-2.35
2018-01-15T03:50:36.926Z,-2.39
2018-01-15T03:53:04.465Z,-2.43
2018-01-15T03:55:32.058Z,-2.39
2018-01-15T03:57:59.598Z,-2.37
2018-01-15T04:00:27.142Z,-2.33
2018-01-15T04:02:54.685Z,-2.32
2018-01-15T04:05:22.286Z,-2.25
2018-01-15T04:07:49.962Z,-2.18
2018-01-15T04:10:17.501Z,-2.23
2018-01-15T04:12:45.102Z,-2.36
2018-01-15T04:15:12.645Z,-2.54
2018-01-15T04:17:40.186Z,-2.58
2018-01-15T04:20:07.797Z,-2.57
2018-01-15T04:22:35.398Z,-2.49
2018-01-15T04:25:02.999Z,-2.37
2018-01-15T04:27:30.519Z,-2.48
2018-01-15T04:29:58.115Z,-2.56
2018-01-15T04:32:25.759Z,-2.60
2018-01-15T04:34:53.298Z,-2.57
2018-01-15T04:37:20.894Z,-2.51
2018-01-15T04:39:48.503Z,-2.52
2018-01-15T04:42:16.046Z,-2.60
2018-01-15T04:44:43.649Z,-2.62
2018-01-15T04:47:11.190Z,-2.75
2018-01-15T04:49:38.730Z,-2.66
2018-01-15T04:52:06.340Z,-2.62
2018-01-15T04:54:33.934Z,-2.65
2018-01-15T04:57:01.575Z,-2.62
2018-01-15T04:59:29.121Z,-2.62
2018-01-15T05:01:56.672Z,-2.66
2018-01-15T05:04:24.286Z,-2.72
2018-01-15T05:06:51.825Z,-2.67
2018-01-15T05:09:19.467Z,-2.54
2018-01-15T05:11:47.045Z,-2.57
2018-01-15T05:14:14.638Z,-2.56
2018-01-15T05:16:42.242Z,-2.61
2018-01-15T05:19:09.773Z,-2.50
2018-01-15T05:21:37.422Z,-2.46
2018-01-15T05:24:04.961Z,-2.40
2018-01-15T05:26:32.570Z,-2.39
2018-01-15T05:29:00.114Z,-2.36
2018-01-15T05:31:27.649Z,-2.29
2018-01-15T05:33:55.298Z,-2.23
2018-01-15T05:36:22.838Z,-2.20
2018-01-15T05:38:50.379Z,-2.23
2018-01-15T05:41:17.925Z,-2.38
2018-01-15T05:43:45.522Z,-2.26
2018-01-15T05:46:13.102Z,-2.18
2018-01-15T05:48:40.639Z,-2.13
2018-01-15T05:51:08.185Z,-2.09
2018-01-15T05:53:35.736Z,-2.14
2018-01-15T05:56:03.277Z,-2.19
2018-01-15T05:58:30.857Z,-2.25
2018-01-15T06:00:58.393Z,-2.23
2018-01-15T06:03:26.002Z,-2.15
2018-01-15T06:05:53.606Z,-2.07
2018-01-15T06:08:21.145Z,-2.03
2018-01-15T06:10:48.734Z,-2.04
2018-01-15T06:13:16.316Z,-1.99
2018-01-15T06:15:43.853Z,-1.97
2018-01-15T06:18:11.398Z,-1.97
2018-01-15T06:20:38.942Z,-1.92
2018-01-15T06:23:06.538Z,-1.80
2018-01-15T06:25:34.086Z,-1.86
2018-01-15T06:28:01.622Z,-1.82
2018-01-15T06:30:29.235Z,-1.84
2018-01-15T06:32:56.830Z,-1.99
2018-01-15T06:35:24.443Z,-2.14
2018-01-15T06:37:52.038Z,-2.07
2018-01-15T06:40:19.573Z,-2.20
2018-01-15T06:42:47.118Z,-2.28
2018-01-15T06:45:14.654Z,-2.20
2018-01-15T06:47:42.326Z,-2.29
2018-01-15T06:50:09.865Z,-2.18
2018-01-15T06:52:37.406Z,-2.26
2018-01-15T06:55:04.958Z,-2.18
2018-01-15T06:57:32.493Z,-2.07
2018-01-15T07:00:00.091Z,-1.92
2018-01-15T07:02:27.633Z,-1.76
2018-01-15T07:04:55.175Z,-1.77
2018-01-15T07:07:22.782Z,-1.86
2018-01-15T07:09:50.326Z,-1.88
2018-01-15T07:12:17.942Z,-1.89
2018-01-15T07:14:45.482Z,-2.16
2018-01-15T07:17:13.044Z,-2.21
2018-01-15T07:19:40.585Z,-2.37
2018-01-15T07:22:08.121Z,-2.30
2018-01-15T07:24:35.738Z,-2.48
2018-01-15T07:27:03.273Z,-2.45
2018-01-15T07:29:30.876Z,-2.25
2018-01-15T07:31:58.478Z,-2.05
2018-01-15T07:34:25.990Z,-2.15
2018-01-15T07:36:53.569Z,-1.99
2018-01-15T07:39:21.103Z,-1.89
2018-01-15T07:41:48.642Z,-1.89
2018-01-15T07:44:16.198Z,-1.71
2018-01-15T07:46:43.794Z,-1.75
2018-01-15T07:49:11.385Z,-1.82
2018-01-15T07:51:38.982Z,-1.87
2018-01-15T07:54:06.529Z,-2.11
2018-01-15T07:56:34.078Z,-2.17
2018-01-15T07:59:01.622Z,-1.91
2018-01-15T08:01:29.201Z,-1.87
2018-01-15T08:03:56.745Z,-1.73
2018-01-15T08:06:24.285Z,-1.45
2018-01-15T08:08:51.830Z,-1.14
2018-01-15T08:11:19.365Z,-0.82
2018-01-15T08:13:47.034Z,-0.66
2018-01-15T08:16:14.578Z,-0.90
2018-01-15T08:18:42.178Z,-1.23
2018-01-15T08:21:09.722Z,-1.08
2018-01-15T08:23:37.266Z,-1.02
2018-01-15T08:26:05.565Z,-1.63
2018-01-15T08:28:33.106Z,-1.68
2018-01-15T08:31:00.703Z,-1.44
2018-01-15T08:33:28.250Z,-1.42
2018-01-15T08:35:55.900Z,-1.16
2018-01-15T08:38:23.486Z,-1.13
2018-01-15T08:40:51.022Z,-1.10
2018-01-15T08:43:18.630Z,-1.45
2018-01-15T08:45:46.182Z,-1.31
2018-01-15T08:48:13.722Z,-1.43
2018-01-15T08:50:41.334Z,-1.13
2018-01-15T08:53:08.869Z,-1.39
2018-01-15T08:55:36.466Z,-1.57
2018-01-15T08:58:04.010Z,-1.22
2018-01-15T09:00:31.549Z,-1.14
2018-01-15T09:02:59.134Z,-1.18
2018-01-15T09:05:26.730Z,-1.13
2018-01-15T09:07:54.388Z,-1.45
2018-01-15T09:10:21.936Z,-1.38
2018-01-15T09:12:49.481Z,-1.25
2018-01-15T09:15:17.122Z,-0.94
2018-01-15T09:17:44.727Z,-1.31
2018-01-15T09:20:12.331Z,-1.38
2018-01-15T09:22:39.927Z,-1.46
2018-01-15T09:25:07.507Z,-1.41
2018-01-15T09:27:35.086Z,-1.23
2018-01-15T09:30:02.630Z,-1.36
2018-01-15T09:32:30.169Z,-1.43
2018-01-15T09:34:57.720Z,-1.46
2018-01-15T09:37:25.318Z,-1.17
2018-01-15T09:39:52.905Z,-0.97
2018-01-15T09:42:20.445Z,-1.28
2018-01-15T09:44:47.988Z,-1.17
2018-01-15T09:47:15.562Z,-1.15
2018-01-15T09:49:43.102Z,-1.10
2018-01-15T09:52:10.686Z,-1.07
2018-01-15T09:54:38.282Z,-0.96
2018-01-15T09:57:05.826Z,-1.15
2018-01-15T09:59:33.378Z,-1.28
2018-01-15T10:02:00.983Z,-1.34
2018-01-15T10:04:28.570Z,-1.31
2018-01-15T10:06:56.111Z,-1.33
2018-01-15T10:09:23.650Z,-1.35
2018-01-15T10:11:51.254Z,-1.20
2018-01-15T10:14:18.794Z,-0.84
2018-01-15T10:16:46.383Z,-0.68
2018-01-15T10:19:13.983Z,-0.35
2018-01-15T10:21:41.582Z,-0.45
2018-01-15T10:24:09.185Z,-0.31
2018-01-15T10:26:37.550Z,-0.36
2018-01-15T10:29:05.165Z,-0.48
2018-01-15T10:31:32.763Z,-0.80
2018-01-15T10:34:00.306Z,-0.67
2018-01-15T10:36:27.914Z,-0.48
2018-01-15T10:38:55.526Z,-0.45
2018-01-15T10:41:23.198Z,-0.94
2018-01-15T10:43:50.742Z,-0.96
2018-01-15T10:46:18.277Z,-0.84
2018-01-15T10:48:45.827Z,-0.60
2018-01-15T10:51:13.424Z,-0.68
2018-01-15T10:53:41.086Z,-0.47
2018-01-15T10:56:08.637Z,-1.14
2018-01-15T10:58:37.047Z,-0.80
2018-01-15T11:01:10.262Z,-0.80
2018-01-15T11:03:37.814Z,-0.70
2018-01-15T11:06:05.417Z,-0.89
2018-01-15T11:08:32.961Z,-1.01
2018-01-15T11:11:00.502Z,-0.73
2018-01-15T11:13:28.052Z,-0.67
2018-01-15T11:15:55.677Z,-0.41
2018-01-15T11:18:23.385Z,-1.03
2018-01-15T11:20:50.845Z,-0.82
2018-01-15T11:23:18.390Z,-0.88
2018-01-15T11:25:45.941Z,-0.95
2018-01-15T11:28:13.497Z,-1.27
2018-01-15T11:30:41.154Z,-1.16
2018-01-15T11:33:08.763Z,-0.86
2018-01-15T11:35:36.306Z,-0.71
2018-01-15T11:38:03.919Z,-0.51
2018-01-15T11:40:31.464Z,-0.42
2018-01-15T11:42:59.054Z,-0.29
2018-01-15T11:45:26.594Z,-0.88
2018-01-15T11:47:54.199Z,-0.83
2018-01-15T11:50:21.764Z,-0.65
2018-01-15T11:52:49.316Z,-0.69
2018-01-15T11:55:16.918Z,-0.52
2018-01-15T11:57:44.462Z,-0.38
2018-01-15T12:00:12.003Z,-0.45
2018-01-15T12:02:39.557Z,-0.35
2018-01-15T12:05:07.159Z,-0.19
2018-01-15T12:07:34.742Z,-0.58
2018-01-15T12:10:02.285Z,-1.12
2018-01-15T12:12:29.887Z,-1.34
2018-01-15T12:14:57.493Z,-0.90
2018-01-15T12:17:25.034Z,-0.91
2018-01-15T12:19:52.627Z,-0.84
2018-01-15T12:22:20.170Z,-0.99
2018-01-15T12:24:47.711Z,-1.24
2018-01-15T12:27:15.320Z,-1.42
2018-01-15T12:29:42.854Z,-1.56
2018-01-15T12:32:10.445Z,-1.45
2018-01-15T12:34:38.074Z,-1.41
2018-01-15T12:37:05.614Z,-1.36
2018-01-15T12:39:33.162Z,-1.39
2018-01-15T12:42:00.759Z,-1.22
2018-01-15T12:44:28.345Z,-1.45
2018-01-15T12:46:55.883Z,-1.58
2018-01-15T12:49:23.422Z,-1.34
2018-01-15T12:51:50.977Z,-1.32
2018-01-15T12:54:18.514Z,-1.39
2018-01-15T12:56:46.098Z,-1.33
2018-01-15T12:59:13.637Z,-1.62
2018-01-15T13:01:41.234Z,-1.56
2018-01-15T13:04:08.838Z,-1.57
2018-01-15T13:07:01.070Z,-1.58
2018-01-15T13:09:28.682Z,-1.28
2018-01-15T13:11:56.278Z,-1.29
2018-01-15T13:14:23.830Z,-1.31
2018-01-15T13:16:51.430Z,-1.35
2018-01-15T13:19:19.102Z,-0.99
2018-01-15T13:21:46.642Z,-1.12
2018-01-15T13:24:14.215Z,-1.07
2018-01-15T13:26:41.762Z,-0.86
2018-01-15T13:29:09.310Z,-0.62
2018-01-15T13:31:36.954Z,-0.82
2018-01-15T13:34:04.554Z,-0.87
2018-01-15T13:36:32.162Z,-1.00
2018-01-15T13:38:59.710Z,-1.01
2018-01-15T13:41:27.310Z,-0.99
2018-01-15T13:43:54.894Z,-1.10
2018-01-15T13:46:22.498Z,-1.35
2018-01-15T13:48:50.038Z,-1.40
2018-01-15T13:51:17.582Z,-1.30
2018-01-15T13:53:45.121Z,-1.37
2018-01-15T13:56:12.725Z,-1.31
2018-01-15T13:58:40.262Z,-1.62
2018-01-15T14:01:07.802Z,-1.68
2018-01-15T14:03:35.357Z,-1.94
2018-01-15T14:06:02.959Z,-1.65
2018-01-15T14:08:30.630Z,-1.52
2018-01-15T14:10:58.232Z,-1.63
2018-01-15T14:13:25.830Z,-1.56
2018-01-15T14:15:53.434Z,-1.49
2018-01-15T14:18:20.969Z,-1.40
2018-01-15T14:20:48.558Z,-1.29
2018-01-15T14:23:16.101Z,-1.31
2018-01-15T14:25:43.654Z,-1.52
2018-01-15T14:28:11.202Z,-1.49
2018-01-15T14:30:38.783Z,-1.64
2018-01-15T14:33:06.417Z,-1.66
2018-01-15T14:35:33.954Z,-1.50
2018-01-15T14:38:01.494Z,-1.44
2018-01-15T14:40:29.038Z,-1.41
2018-01-15T14:42:56.629Z,-1.43
2018-01-15T14:45:24.218Z,-1.51
2018-01-15T14:47:51.822Z,-1.60
2018-01-15T14:50:19.362Z,-1.60
2018-01-15T14:52:46.970Z,-1.65
2018-01-15T14:55:14.574Z,-1.79
2018-01-15T14:57:42.240Z,-1.88
2018-01-15T15:00:09.782Z,-1.96
2018-01-15T15:02:37.321Z,-2.05
2018-01-15T15:05:04.872Z,-2.16
2018-01-15T15:07:32.422Z,-2.15
2018-01-15T15:10:00.016Z,-2.16
2018-01-15T15:12:27.623Z,-2.14
2018-01-15T15:14:55.276Z,-2.12
2018-01-15T15:17:22.834Z,-2.16
2018-01-15T15:19:50.384Z,-2.19
2018-01-15T15:22:18.071Z,-2.20
2018-01-15T15:24:45.605Z,-2.26
2018-01-15T15:27:13.142Z,-2.32
2018-01-15T15:29:40.694Z,-2.28
2018-01-15T15:32:08.233Z,-2.37
2018-01-15T15:34:35.877Z,-2.44
2018-01-15T15:37:03.409Z,-2.51
2018-01-15T15:39:31.006Z,-2.55
2018-01-15T15:41:58.614Z,-2.61
2018-01-15T15:44:26.158Z,-2.65
2018-01-15T15:46:53.770Z,-2.74
2018-01-15T15:49:21.305Z,-2.76
2018-01-15T15:51:48.846Z,-2.78
2018-01-15T15:54:16.450Z,-2.83
2018-01-15T15:56:43.986Z,-2.88
2018-01-15T15:59:11.574Z,-2.98
2018-01-15T16:01:39.105Z,-2.97
2018-01-15T16:04:06.646Z,-2.98
2018-01-15T16:06:34.251Z,-2.95
2018-01-15T16:09:01.785Z,-2.93
2018-01-15T16:11:29.394Z,-2.87
2018-01-15T16:13:57.001Z,-2.94
2018-01-15T16:16:24.585Z,-2.95
2018-01-15T16:18:52.193Z,-2.93
2018-01-15T16:21:19.790Z,-2.91
2018-01-15T16:23:47.419Z,-2.92
2018-01-15T16:26:15.014Z,-2.95
2018-01-15T16:28:42.555Z,-2.91
2018-01-15T16:31:10.162Z,-2.90
2018-01-15T16:33:37.705Z,-2.88
2018-01-15T16:36:05.347Z,-2.95
2018-01-15T16:38:32.890Z,-2.90
2018-01-15T16:41:00.433Z,-2.90
2018-01-15T16:43:28.042Z,-2.80
2018-01-15T16:45:55.661Z,-2.78
2018-01-15T16:48:23.338Z,-2.74
2018-01-15T16:50:50.880Z,-2.77
2018-01-15T16:53:18.478Z,-2.81
2018-01-15T16:55:46.026Z,-2.81
2018-01-15T16:58:13.568Z,-2.81
2018-01-15T17:00:41.247Z,-3.02
2018-01-15T17:03:08.787Z,-2.97
2018-01-15T17:05:36.391Z,-2.97
2018-01-15T17:08:03.941Z,-2.99
2018-01-15T17:10:31.483Z,-3.00
2018-01-15T17:12:59.129Z,-2.89
2018-01-15T17:15:26.670Z,-2.83
2018-01-15T17:17:54.269Z,-2.88
2018-01-15T17:20:21.870Z,-2.79
2018-01-15T17:22:49.410Z,-2.81
2018-01-15T17:25:17.050Z,-2.73
2018-01-15T17:27:44.706Z,-2.69
2018-01-15T17:30:12.308Z,-2.67
2018-01-15T17:32:39.914Z,-2.84
2018-01-15T17:35:07.514Z,-2.88
2018-01-15T17:37:35.126Z,-2.94
2018-01-15T17:40:02.723Z,-2.82
2018-01-15T17:42:30.279Z,-2.84
2018-01-15T17:44:57.837Z,-2.74
2018-01-15T17:47:25.507Z,-2.75
2018-01-15T17:49:53.097Z,-2.72
2018-01-15T17:52:20.637Z,-2.68
2018-01-15T17:54:48.177Z,-2.65
2018-01-15T17:57:15.787Z,-2.74
2018-01-15T17:59:43.333Z,-2.73
2018-01-15T18:02:10.914Z,-2.68
2018-01-15T18:04:38.450Z,-2.71
2018-01-15T18:07:05.990Z,-2.73
2018-01-15T18:09:33.602Z,-2.71
2018-01-15T18:12:01.206Z,-2.71
2018-01-15T18:14:28.886Z,-2.60
2018-01-15T18:16:56.481Z,-2.61
2018-01-15T18:19:24.082Z,-2.71
2018-01-15T18:21:51.697Z,-2.74
2018-01-15T18:24:19.242Z,-2.65
2018-01-15T18:26:46.903Z,-2.63
2018-01-15T18:29:14.502Z,-2.64
2018-01-15T18:31:42.050Z,-2.71
2018-01-15T18:34:09.598Z,-2.64
2018-01-15T18:36:37.139Z,-2.59
2018-01-15T18:39:04.797Z,-2.63
2018-01-15T18:41:32.406Z,-2.63
2018-01-15T18:43:59.942Z,-2.64
2018-01-15T18:46:27.489Z,-2.63
2018-01-15T18:48:55.030Z,-2.58
2018-01-15T18:51:22.669Z,-2.48
2018-01-15T18:53:50.212Z,-2.41
2018-01-15T18:56:17.753Z,-2.39
2018-01-15T18:58:45.306Z,-2.32
2018-01-15T19:01:12.846Z,-2.29
2018-01-15T19:03:40.450Z,-2.37
2018-01-15T19:06:08.001Z,-2.31
2018-01-15T19:08:35.545Z,-2.35
2018-01-15T19:11:03.098Z,-2.36
2018-01-15T19:13:30.642Z,-2.28
2018-01-15T19:15:58.253Z,-2.26
2018-01-15T19:18:25.850Z,-2.28
2018-01-15T19:20:53.453Z,-2.22
2018-01-15T19:23:21.006Z,-2.17
2018-01-15T19:25:48.543Z,-2.11
2018-01-15T19:28:16.178Z,-2.11
2018-01-15T19:30:43.754Z,-2.07
2018-01-15T19:33:11.333Z,-2.05
2018-01-15T19:35:44.354Z,-2.10
2018-01-15T19:38:13.398Z,-2.03
2018-01-15T19:40:41.050Z,-2.02
2018-01-15T19:46:18.214Z,-2.06
2018-01-15T19:48:51.302Z,-2.11
2018-01-15T19:51:24.598Z,-2.13
2018-01-15T19:53:57.808Z,-2.15
2018-01-15T19:56:30.817Z,-2.15
2018-01-15T19:59:03.943Z,-2.18
2018-01-15T20:01:37.226Z,-2.13
2018-01-15T20:04:10.350Z,-2.24
2018-01-15T20:06:43.671Z,-2.24
2018-01-15T20:09:16.753Z,-2.25
2018-01-15T20:11:44.455Z,-2.29
2018-01-15T20:14:12.046Z,-2.37
2018-01-15T20:16:39.582Z,-2.50
2018-01-15T20:19:07.138Z,-2.42
2018-01-15T20:21:34.722Z,-2.42
2018-01-15T20:24:02.307Z,-2.39
2018-01-15T20:26:29.851Z,-2.42
2018-01-15T20:28:57.403Z,-2.47
2018-01-15T20:31:24.958Z,-2.42
2018-01-15T20:33:52.557Z,-2.44
2018-01-15T20:36:20.138Z,-2.54
2018-01-15T20:38:47.735Z,-2.60
2018-01-15T20:41:15.273Z,-2.60
2018-01-15T20:43:42.893Z,-2.62
2018-01-15T20:46:10.435Z,-2.69
2018-01-15T20:48:38.086Z,-2.80
2018-01-15T20:51:05.686Z,-2.86
2018-01-15T20:53:33.225Z,-2.86
2018-01-15T20:56:00.774Z,-2.86
2018-01-15T20:58:28.371Z,-2.81
2018-01-15T21:00:55.986Z,-2.75
2018-01-15T21:03:23.530Z,-2.68
2018-01-15T21:05:51.070Z,-2.82
2018-01-15T21:08:18.675Z,-2.88
2018-01-15T21:10:46.215Z,-2.86
2018-01-15T21:13:13.795Z,-2.88
2018-01-15T21:15:41.334Z,-2.77
2018-01-15T21:18:08.878Z,-2.76
2018-01-15T21:20:36.494Z,-2.72
2018-01-15T21:23:04.123Z,-2.72
2018-01-15T21:25:31.708Z,-2.75
2018-01-15T21:27:59.307Z,-2.80
2018-01-15T21:30:26.862Z,-2.73
2018-01-15T21:32:54.418Z,-2.63
2018-01-15T21:35:21.955Z,-2.75
2018-01-15T21:37:49.630Z,-2.96
2018-01-15T21:40:17.286Z,-2.97
2018-01-15T21:42:44.895Z,-2.91
2018-01-15T21:45:12.443Z,-2.91
2018-01-15T21:47:39.989Z,-3.04
2018-01-15T21:50:07.601Z,-2.94
2018-01-15T21:52:35.211Z,-2.94
2018-01-15T21:55:02.750Z,-2.96
2018-01-15T21:57:30.354Z,-3.00
2018-01-15T21:59:57.898Z,-3.00
2018-01-15T22:02:25.571Z,-2.98
2018-01-15T22:04:53.118Z,-3.06
2018-01-15T22:07:20.662Z,-3.00
2018-01-15T22:09:48.320Z,-3.15
2018-01-15T22:12:15.910Z,-3.11
2018-01-15T22:14:43.523Z,-3.20
2018-01-15T22:17:11.061Z,-3.08
2018-01-15T22:19:38.602Z,-3.15
2018-01-15T22:22:06.216Z,-3.17
2018-01-15T22:24:33.762Z,-3.18
2018-01-15T22:27:01.370Z,-3.20
2018-01-15T22:29:28.909Z,-3.22
2018-01-15T22:31:56.506Z,-3.24
2018-01-15T22:34:24.115Z,-3.11
2018-01-15T22:36:51.758Z,-3.06
2018-01-15T22:39:19.334Z,-3.00
2018-01-15T22:41:46.874Z,-3.02
2018-01-15T22:44:14.413Z,-3.06
2018-01-15T22:46:41.966Z,-3.06
2018-01-15T22:49:09.511Z,-2.96
2018-01-15T22:51:37.094Z,-2.94
2018-01-15T22:54:04.699Z,-2.88
2018-01-15T22:56:32.259Z,-2.81
2018-01-15T22:58:59.874Z,-2.77
2018-01-15T23:01:27.414Z,-2.75
2018-01-15T23:03:55.063Z,-2.77
2018-01-15T23:06:22.607Z,-2.79
2018-01-15T23:08:50.154Z,-2.76
2018-01-15T23:11:17.714Z,-2.83
2018-01-15T23:13:45.266Z,-2.89
2018-01-15T23:16:12.939Z,-2.81
2018-01-15T23:18:40.539Z,-2.78
2018-01-15T23:21:08.077Z,-2.68
2018-01-15T23:23:35.629Z,-2.73
2018-01-15T23:26:03.235Z,-2.84
2018-01-15T23:28:30.846Z,-2.76
2018-01-15T23:30:58.446Z,-2.76
2018-01-15T23:33:26.047Z,-2.78
2018-01-15T23:35:53.599Z,-2.69
2018-01-15T23:38:21.145Z,-2.72
2018-01-15T23:40:48.738Z,-2.80
2018-01-15T23:43:16.318Z,-2.77
2018-01-15T23:45:43.961Z,-2.83
2018-01-15T23:48:11.501Z,-2.94
2018-01-15T23:50:39.150Z,-3.05
2018-01-15T23:53:06.734Z,-3.02
2018-01-15T23:55:34.386Z,-3.05
2018-01-15T23:58:01.982Z,-3.16
